Time;durP1;ratioP1;P1;durP2;ratioP2;P2;SDS_P1;SDS_P2;PMS_P1;PMS_P2;Temp;Humidity;BMP_temperature;BMP_pressure;BME280_temperature;BME280_humidity;BME280_pressure;Samples;Min_cycle;Max_cycle;Signal;HPM_P1;HPM_P2
2023/12/25 00:01:48;;;;;;;2.65;1.00;;;10.60;99.90;;;;;;5042253;28;20765;-84
2023/12/25 00:04:14;;;;;;;0.93;0.50;;;10.70;99.90;;;;;;5029272;28;20124;-83
2023/12/25 00:06:39;;;;;;;1.15;0.63;;;10.70;99.90;;;;;;5024616;28;20493;-83
2023/12/25 00:09:05;;;;;;;1.40;0.50;;;10.70;99.90;;;;;;5030741;28;20095;-84
2023/12/25 00:11:31;;;;;;;0.63;0.45;;;10.70;99.90;;;;;;5029062;28;20063;-83
2023/12/25 00:13:57;;;;;;;1.15;0.43;;;10.60;99.90;;;;;;5028872;28;20039;-84
2023/12/25 00:16:26;;;;;;;1.63;0.80;;;10.60;99.90;;;;;;5025501;28;20032;-83
2023/12/25 00:18:52;;;;;;;1.85;0.57;;;10.60;99.90;;;;;;5026722;28;20043;-83
2023/12/25 00:21:18;;;;;;;0.55;0.55;;;10.70;99.90;;;;;;5022827;28;20090;-84
2023/12/25 00:23:44;;;;;;;0.30;0.30;;;10.70;99.90;;;;;;5028485;28;20042;-83
2023/12/25 00:26:09;;;;;;;2.75;0.60;;;10.60;99.90;;;;;;5029746;28;20151;-83
2023/12/25 00:28:35;;;;;;;0.90;0.70;;;10.70;99.90;;;;;;5033935;28;20082;-84
2023/12/25 00:31:00;;;;;;;0.68;0.40;;;10.70;99.90;;;;;;5041385;28;20025;-84
2023/12/25 00:33:26;;;;;;;0.63;0.30;;;10.60;99.90;;;;;;5021847;28;20040;-83
2023/12/25 00:35:52;;;;;;;1.13;0.50;;;10.70;99.90;;;;;;5026508;28;20050;-84
2023/12/25 00:38:17;;;;;;;2.10;0.40;;;10.70;99.90;;;;;;5025672;28;20032;-85
2023/12/25 00:40:43;;;;;;;1.10;0.68;;;10.70;99.90;;;;;;5040732;28;20024;-85
2023/12/25 00:43:08;;;;;;;0.73;0.60;;;10.70;99.90;;;;;;5032240;28;20560;-84
2023/12/25 00:45:34;;;;;;;1.15;0.60;;;10.70;99.90;;;;;;5027582;28;20198;-84
2023/12/25 00:48:00;;;;;;;1.42;0.85;;;10.70;99.90;;;;;;5014715;28;20286;-83
2023/12/25 00:50:25;;;;;;;1.48;0.80;;;10.70;99.90;;;;;;5030172;28;20032;-83
2023/12/25 00:52:51;;;;;;;1.92;0.73;;;10.70;99.90;;;;;;5042485;28;20047;-84
2023/12/25 00:55:18;;;;;;;1.65;0.88;;;10.70;99.90;;;;;;5014500;28;20037;-83
2023/12/25 00:57:44;;;;;;;1.73;1.00;;;10.70;99.90;;;;;;5034951;28;20456;-83
2023/12/25 01:00:10;;;;;;;1.65;0.60;;;10.70;99.90;;;;;;5043811;28;20108;-84
2023/12/25 01:02:36;;;;;;;1.30;1.05;;;10.70;99.90;;;;;;5025638;28;20029;-84
2023/12/25 01:05:02;;;;;;;0.68;0.68;;;10.70;99.90;;;;;;5039544;28;20656;-84
2023/12/25 01:07:27;;;;;;;6.68;1.20;;;10.70;99.90;;;;;;5024220;28;20032;-84
2023/12/25 01:09:53;;;;;;;1.92;1.27;;;10.70;99.90;;;;;;5031302;28;20050;-84
2023/12/25 01:12:24;;;;;;;2.10;0.95;;;10.70;99.90;;;;;;5029190;28;20024;-85
2023/12/25 01:14:49;;;;;;;1.88;0.98;;;10.70;99.90;;;;;;5031899;28;20509;-84
2023/12/25 01:17:15;;;;;;;1.23;0.80;;;10.80;99.90;;;;;;5041984;28;20028;-83
2023/12/25 01:19:41;;;;;;;2.35;0.88;;;10.70;99.90;;;;;;5025499;28;20037;-84
2023/12/25 01:22:07;;;;;;;1.98;0.70;;;10.70;99.90;;;;;;5041213;28;20090;-83
2023/12/25 01:24:33;;;;;;;3.38;1.17;;;10.70;99.90;;;;;;5027317;28;20063;-84
2023/12/25 01:26:58;;;;;;;2.28;0.93;;;10.70;99.90;;;;;;5006920;28;20664;-83
2023/12/25 01:29:24;;;;;;;1.15;0.70;;;10.70;99.90;;;;;;5025308;28;20593;-83
2023/12/25 01:31:49;;;;;;;3.13;0.80;;;10.70;99.90;;;;;;5028458;28;20025;-83
2023/12/25 01:34:15;;;;;;;4.72;1.70;;;10.70;99.90;;;;;;5045707;28;20060;-83
2023/12/25 01:36:41;;;;;;;3.22;1.20;;;10.70;99.90;;;;;;5042919;28;20027;-83
2023/12/25 01:39:07;;;;;;;1.88;1.15;;;10.70;99.90;;;;;;5028036;28;20529;-83
2023/12/25 01:41:32;;;;;;;2.25;1.10;;;10.70;99.90;;;;;;5035236;28;20036;-83
2023/12/25 01:43:58;;;;;;;2.03;1.23;;;10.80;99.90;;;;;;5029522;28;20036;-83
2023/12/25 01:46:24;;;;;;;6.25;1.05;;;10.60;99.90;;;;;;5026856;28;20378;-84
2023/12/25 01:48:51;;;;;;;3.03;1.30;;;10.70;99.90;;;;;;5027526;28;20063;-84
2023/12/25 01:51:21;;;;;;;2.38;0.95;;;10.70;99.90;;;;;;5033057;28;20518;-84
2023/12/25 01:53:46;;;;;;;0.93;0.75;;;10.70;99.90;;;;;;5046563;28;20103;-83
2023/12/25 01:56:12;;;;;;;3.63;1.35;;;10.60;99.90;;;;;;5034142;28;20043;-84
2023/12/25 01:58:38;;;;;;;5.20;0.98;;;10.70;99.90;;;;;;5045597;28;20105;-84
2023/12/25 02:01:05;;;;;;;1.25;0.85;;;10.70;99.90;;;;;;5032708;28;20521;-84
2023/12/25 02:03:31;;;;;;;4.15;1.00;;;10.70;99.90;;;;;;5044764;28;20466;-83
2023/12/25 02:05:56;;;;;;;0.85;0.68;;;10.90;99.90;;;;;;5022906;28;20529;-84
2023/12/25 02:08:22;;;;;;;2.95;1.23;;;10.80;99.90;;;;;;5026886;28;20087;-84
2023/12/25 02:10:48;;;;;;;0.50;0.50;;;10.80;99.90;;;;;;5043432;28;20397;-84
2023/12/25 02:13:15;;;;;;;1.48;0.70;;;10.70;99.90;;;;;;5010845;28;20036;-84
2023/12/25 02:15:42;;;;;;;1.75;0.68;;;10.80;99.90;;;;;;5035493;28;20021;-85
2023/12/25 02:18:07;;;;;;;2.00;0.90;;;10.70;99.90;;;;;;5030038;28;20086;-84
2023/12/25 02:20:33;;;;;;;2.92;0.75;;;10.90;99.90;;;;;;5038005;28;20471;-84
2023/12/25 02:22:59;;;;;;;0.65;0.57;;;10.80;99.90;;;;;;5023053;28;20083;-84
2023/12/25 02:25:32;;;;;;;1.38;0.70;;;10.80;99.90;;;;;;5024632;28;20043;-84
2023/12/25 02:27:57;;;;;;;0.73;0.70;;;10.80;99.90;;;;;;5049974;28;20031;-84
2023/12/25 02:30:23;;;;;;;0.63;0.50;;;10.80;99.90;;;;;;5029827;28;20036;-84
2023/12/25 02:32:49;;;;;;;1.52;0.88;;;10.80;99.90;;;;;;5037708;28;20051;-86
2023/12/25 02:35:14;;;;;;;0.80;0.80;;;10.70;99.90;;;;;;5032539;28;20272;-85
2023/12/25 02:37:41;;;;;;;1.52;0.95;;;10.70;99.90;;;;;;5030441;28;20028;-85
2023/12/25 02:40:07;;;;;;;2.63;0.88;;;10.80;99.90;;;;;;5027402;28;20110;-83
2023/12/25 02:42:33;;;;;;;2.50;1.13;;;10.70;99.90;;;;;;5039579;28;20055;-85
2023/12/25 02:44:58;;;;;;;0.47;0.47;;;10.80;99.90;;;;;;5036864;28;20512;-83
2023/12/25 02:47:24;;;;;;;1.05;0.65;;;10.80;99.90;;;;;;5026573;28;20060;-83
2023/12/25 02:49:49;;;;;;;0.77;0.77;;;10.80;99.90;;;;;;5034240;28;20025;-83
2023/12/25 02:52:15;;;;;;;1.08;0.55;;;10.80;99.90;;;;;;5034780;28;20417;-83
2023/12/25 02:54:41;;;;;;;1.45;0.88;;;10.80;99.90;;;;;;5032347;28;20282;-84
2023/12/25 02:57:07;;;;;;;1.40;0.90;;;10.80;99.90;;;;;;5016890;28;20040;-84
2023/12/25 02:59:32;;;;;;;0.70;0.50;;;10.80;99.90;;;;;;5043522;28;20033;-84
2023/12/25 03:01:58;;;;;;;2.15;0.88;;;10.80;99.90;;;;;;5039329;28;20099;-84
2023/12/25 03:04:25;;;;;;;1.02;0.75;;;10.80;99.90;;;;;;5033023;28;20488;-83
2023/12/25 03:06:50;;;;;;;1.30;0.52;;;10.80;99.90;;;;;;5029097;28;20024;-83
2023/12/25 03:09:18;;;;;;;2.10;0.75;;;10.80;99.90;;;;;;5043897;28;20058;-83
2023/12/25 03:11:45;;;;;;;1.63;0.70;;;10.80;99.90;;;;;;5029137;28;20660;-84
2023/12/25 03:14:10;;;;;;;0.85;0.52;;;10.80;99.90;;;;;;5039265;28;20610;-84
2023/12/25 03:16:36;;;;;;;0.63;0.38;;;10.80;99.90;;;;;;5044196;28;20033;-84
2023/12/25 03:19:01;;;;;;;0.68;0.50;;;10.80;99.90;;;;;;5020815;28;20745;-84
2023/12/25 03:21:27;;;;;;;1.67;0.73;;;10.80;99.90;;;;;;5043642;28;20512;-84
2023/12/25 03:23:52;;;;;;;3.13;0.55;;;10.80;99.90;;;;;;5043725;28;20036;-83
2023/12/25 03:26:18;;;;;;;4.32;0.63;;;10.90;99.90;;;;;;5044270;28;20405;-82
2023/12/25 03:28:44;;;;;;;6.00;0.95;;;10.80;99.90;;;;;;5032467;28;20040;-83
2023/12/25 03:31:10;;;;;;;1.67;0.70;;;10.80;99.90;;;;;;5027519;28;20032;-83
2023/12/25 03:33:36;;;;;;;1.52;0.80;;;10.80;99.90;;;;;;5027913;28;20043;-83
2023/12/25 03:36:02;;;;;;;1.45;1.02;;;10.80;99.90;;;;;;5041541;28;20540;-83
2023/12/25 03:38:28;;;;;;;1.15;0.70;;;10.80;99.90;;;;;;5027265;28;20055;-84
2023/12/25 03:40:54;;;;;;;0.82;0.43;;;10.80;99.90;;;;;;5029594;28;20033;-83
2023/12/25 03:43:19;;;;;;;1.42;1.00;;;10.80;99.90;;;;;;5047024;28;20532;-84
2023/12/25 03:45:45;;;;;;;1.60;0.73;;;10.90;99.90;;;;;;5030110;28;20078;-83
2023/12/25 03:48:10;;;;;;;1.50;0.50;;;10.80;99.90;;;;;;5028166;28;20033;-84
2023/12/25 03:50:36;;;;;;;1.13;0.68;;;10.80;99.90;;;;;;5016728;28;20509;-84
2023/12/25 03:53:02;;;;;;;2.45;1.00;;;10.80;99.90;;;;;;5040233;28;20623;-85
2023/12/25 03:55:28;;;;;;;0.80;0.80;;;10.80;99.90;;;;;;4996753;28;20057;-84
2023/12/25 03:57:54;;;;;;;0.90;0.70;;;10.80;99.90;;;;;;5017173;28;20417;-85
2023/12/25 04:00:20;;;;;;;0.50;0.50;;;10.80;99.90;;;;;;5024263;28;20024;-84
2023/12/25 04:02:45;;;;;;;1.85;1.20;;;10.80;99.90;;;;;;5014495;28;20494;-84
2023/12/25 04:05:11;;;;;;;1.10;0.80;;;10.80;99.90;;;;;;5032162;28;20036;-84
2023/12/25 04:07:37;;;;;;;0.93;0.80;;;10.80;99.90;;;;;;5019738;28;20036;-84
2023/12/25 04:10:05;;;;;;;0.52;0.50;;;10.80;99.90;;;;;;5039656;28;20055;-84
2023/12/25 04:12:31;;;;;;;0.98;0.80;;;10.80;99.90;;;;;;5038026;28;20082;-84
2023/12/25 04:14:57;;;;;;;0.52;0.52;;;10.80;99.90;;;;;;5027434;28;20028;-83
2023/12/25 04:17:26;;;;;;;1.77;1.02;;;10.80;99.90;;;;;;5028677;28;20032;-84
2023/12/25 04:19:52;;;;;;;1.73;0.63;;;10.80;99.90;;;;;;5045771;28;20130;-84
2023/12/25 04:22:17;;;;;;;0.70;0.70;;;10.80;99.90;;;;;;5027789;28;20134;-84
2023/12/25 04:24:43;;;;;;;1.38;0.60;;;10.80;99.90;;;;;;5030091;28;20036;-84
2023/12/25 04:27:08;;;;;;;0.93;0.70;;;10.80;99.90;;;;;;5026092;28;20035;-84
2023/12/25 04:29:35;;;;;;;1.73;0.52;;;10.80;99.90;;;;;;5028108;28;20041;-84
2023/12/25 04:32:03;;;;;;;5.85;0.55;;;10.80;99.90;;;;;;5017086;28;20032;-84
2023/12/25 04:34:29;;;;;;;8.75;0.88;;;10.90;99.90;;;;;;5043357;28;20037;-84
2023/12/25 04:36:54;;;;;;;1.02;0.93;;;10.80;99.90;;;;;;5027643;28;20174;-84
2023/12/25 04:39:20;;;;;;;1.15;0.80;;;10.80;99.90;;;;;;5026208;28;20429;-84
2023/12/25 04:41:49;;;;;;;1.67;0.95;;;10.80;99.90;;;;;;5041240;28;20059;-84
2023/12/25 04:44:15;;;;;;;0.70;0.50;;;10.80;99.90;;;;;;5073010;28;20043;-84
2023/12/25 04:46:41;;;;;;;1.15;0.65;;;10.80;99.90;;;;;;5028142;28;20024;-84
2023/12/25 04:49:06;;;;;;;0.88;0.82;;;10.80;99.90;;;;;;5041268;28;20219;-84
2023/12/25 04:51:32;;;;;;;1.35;0.60;;;10.90;99.90;;;;;;5044016;28;20603;-84
2023/12/25 04:53:57;;;;;;;2.80;0.90;;;10.90;99.90;;;;;;5018070;28;20040;-83
2023/12/25 04:56:23;;;;;;;5.30;0.90;;;10.90;99.90;;;;;;5027267;28;20032;-84
2023/12/25 04:58:49;;;;;;;2.83;0.73;;;10.90;99.90;;;;;;5040172;28;20429;-84
2023/12/25 05:01:14;;;;;;;1.13;1.02;;;10.90;99.90;;;;;;5027595;28;20111;-84
2023/12/25 05:03:40;;;;;;;0.55;0.55;;;10.90;99.90;;;;;;5025868;28;20064;-85
2023/12/25 05:06:06;;;;;;;0.50;0.45;;;10.90;99.90;;;;;;5026406;28;20039;-83
2023/12/25 05:08:31;;;;;;;2.38;0.60;;;10.90;99.90;;;;;;5025869;28;20493;-84
2023/12/25 05:10:57;;;;;;;0.35;0.35;;;10.90;99.90;;;;;;5029319;28;20028;-83
2023/12/25 05:13:22;;;;;;;1.17;0.70;;;10.90;99.90;;;;;;5031860;28;20036;-84
2023/12/25 05:15:48;;;;;;;1.77;0.70;;;10.90;99.90;;;;;;5028678;28;20036;-83
2023/12/25 05:18:14;;;;;;;0.95;0.50;;;10.90;99.90;;;;;;5047719;28;20489;-83
2023/12/25 05:20:40;;;;;;;1.27;0.50;;;11.00;99.90;;;;;;5033319;28;20043;-84
2023/12/25 05:23:05;;;;;;;0.50;0.30;;;10.90;99.90;;;;;;5031077;28;20173;-83
2023/12/25 05:25:31;;;;;;;0.77;0.70;;;10.90;99.90;;;;;;5030563;28;20032;-84
2023/12/25 05:27:57;;;;;;;2.28;0.68;;;10.90;99.90;;;;;;5030009;28;20042;-84
2023/12/25 05:30:23;;;;;;;2.92;0.50;;;10.90;99.90;;;;;;5029032;28;20065;-83
2023/12/25 05:32:48;;;;;;;2.00;0.63;;;10.90;99.90;;;;;;5032881;28;20025;-84
2023/12/25 05:35:14;;;;;;;0.30;0.30;;;10.90;99.90;;;;;;5029040;28;20109;-84
2023/12/25 05:37:39;;;;;;;0.50;0.43;;;10.90;99.90;;;;;;5041884;28;20036;-84
2023/12/25 05:40:06;;;;;;;0.28;0.13;;;10.90;99.90;;;;;;5030414;28;20028;-84
2023/12/25 05:42:31;;;;;;;1.02;0.30;;;10.90;99.90;;;;;;5030090;28;20524;-84
2023/12/25 05:44:57;;;;;;;0.20;0.20;;;10.90;99.90;;;;;;5029420;28;20029;-83
2023/12/25 05:47:23;;;;;;;0.57;0.57;;;10.90;99.90;;;;;;5034846;28;20040;-83
2023/12/25 05:49:48;;;;;;;0.38;0.38;;;10.90;99.90;;;;;;5031865;28;20389;-83
2023/12/25 05:52:14;;;;;;;0.20;0.20;;;10.80;99.90;;;;;;5032487;28;20072;-83
2023/12/25 05:54:39;;;;;;;0.47;0.20;;;10.80;99.90;;;;;;5040853;28;20025;-84
2023/12/25 05:57:05;;;;;;;1.35;0.40;;;10.80;99.90;;;;;;5027964;28;20471;-83
2023/12/25 05:59:33;;;;;;;0.00;0.00;;;10.90;99.90;;;;;;5030068;28;20040;-84
2023/12/25 06:01:58;;;;;;;0.63;0.20;;;10.90;99.90;;;;;;5032288;28;20043;-83
2023/12/25 06:04:24;;;;;;;0.30;0.15;;;10.90;99.90;;;;;;5029416;28;20822;-83
2023/12/25 06:06:50;;;;;;;0.30;0.30;;;10.90;99.90;;;;;;5015090;28;20574;-84
2023/12/25 06:09:15;;;;;;;0.20;0.10;;;10.90;99.90;;;;;;5030710;28;20024;-85
2023/12/25 06:11:41;;;;;;;0.20;0.10;;;10.90;99.90;;;;;;5056380;28;20393;-84
2023/12/25 06:14:07;;;;;;;0.30;0.25;;;10.80;99.90;;;;;;5049711;28;20389;-85
2023/12/25 06:16:33;;;;;;;0.20;0.20;;;10.80;99.90;;;;;;5034934;28;20042;-85
2023/12/25 06:18:58;;;;;;;0.65;0.20;;;10.80;99.90;;;;;;5031552;28;20514;-85
2023/12/25 06:21:24;;;;;;;0.17;0.17;;;10.80;99.90;;;;;;5030087;28;20078;-84
2023/12/25 06:23:52;;;;;;;0.17;0.10;;;10.80;99.90;;;;;;5040149;28;20055;-84
2023/12/25 06:26:18;;;;;;;0.20;0.15;;;10.80;99.90;;;;;;5036219;28;20442;-84
2023/12/25 06:28:43;;;;;;;0.75;0.30;;;10.80;99.90;;;;;;5025354;28;20204;-85
2023/12/25 06:31:09;;;;;;;4.18;0.30;;;10.80;99.90;;;;;;5031005;28;20154;-85
2023/12/25 06:33:35;;;;;;;0.63;0.20;;;10.80;99.90;;;;;;5031470;28;20085;-85
2023/12/25 06:36:01;;;;;;;0.30;0.20;;;10.80;99.90;;;;;;5027812;28;20059;-85
2023/12/25 06:38:26;;;;;;;1.45;0.10;;;10.80;99.90;;;;;;5031638;28;20492;-85
2023/12/25 06:40:52;;;;;;;1.08;0.30;;;10.80;99.90;;;;;;5030745;28;20052;-85
2023/12/25 06:43:17;;;;;;;0.40;0.30;;;10.80;99.90;;;;;;5047966;28;20039;-84
2023/12/25 06:45:44;;;;;;;1.00;0.43;;;10.90;99.90;;;;;;5042364;28;20021;-84
2023/12/25 06:48:10;;;;;;;0.35;0.22;;;10.80;99.90;;;;;;5030903;28;20032;-84
2023/12/25 06:50:37;;;;;;;1.50;0.43;;;10.80;99.90;;;;;;5031551;28;20083;-85
2023/12/25 06:53:04;;;;;;;1.52;0.40;;;10.80;99.90;;;;;;5041395;28;20115;-85
2023/12/25 06:55:31;;;;;;;0.65;0.45;;;10.80;99.90;;;;;;5045272;28;20411;-84
2023/12/25 06:57:58;;;;;;;0.47;0.10;;;10.80;99.90;;;;;;5029747;28;20050;-84
2023/12/25 07:00:24;;;;;;;0.20;0.20;;;10.80;99.90;;;;;;5030319;28;20043;-85
2023/12/25 07:02:50;;;;;;;0.85;0.30;;;10.80;99.90;;;;;;5030169;28;20398;-85
2023/12/25 07:05:16;;;;;;;0.88;0.30;;;10.70;99.90;;;;;;5032001;28;20089;-85
2023/12/25 07:07:42;;;;;;;0.35;0.20;;;10.70;99.90;;;;;;5030551;28;20035;-85
2023/12/25 07:10:08;;;;;;;1.83;0.38;;;10.80;99.90;;;;;;5042114;28;20036;-85
2023/12/25 07:12:37;;;;;;;2.22;0.30;;;10.80;99.90;;;;;;5014462;28;20055;-85
2023/12/25 07:15:06;;;;;;;0.47;0.47;;;10.80;99.90;;;;;;5022314;28;20032;-85
2023/12/25 07:17:32;;;;;;;0.40;0.30;;;10.70;99.90;;;;;;5023718;28;20651;-85
2023/12/25 07:19:58;;;;;;;1.30;0.55;;;10.70;99.90;;;;;;5030503;28;20024;-84
2023/12/25 07:22:24;;;;;;;0.73;0.40;;;10.90;99.90;;;;;;5028084;28;20071;-85
2023/12/25 07:24:50;;;;;;;1.70;0.47;;;10.80;99.90;;;;;;5045560;28;20020;-84
2023/12/25 07:27:15;;;;;;;0.73;0.32;;;10.80;99.90;;;;;;5049036;28;20028;-85
2023/12/25 07:29:41;;;;;;;0.60;0.17;;;10.80;99.90;;;;;;5029872;28;20028;-85
2023/12/25 07:32:07;;;;;;;0.30;0.30;;;10.90;99.90;;;;;;5045172;28;20032;-85
2023/12/25 07:34:33;;;;;;;0.63;0.40;;;10.80;99.90;;;;;;5028787;28;20036;-85
2023/12/25 07:37:01;;;;;;;0.30;0.30;;;10.90;99.90;;;;;;5042811;28;20166;-85
2023/12/25 07:39:27;;;;;;;1.02;0.30;;;10.80;99.90;;;;;;5027955;28;20067;-86
2023/12/25 07:41:55;;;;;;;0.95;0.38;;;10.90;99.90;;;;;;5030175;28;20056;-84
2023/12/25 07:44:21;;;;;;;0.20;0.15;;;10.80;99.90;;;;;;5032536;28;20028;-85
2023/12/25 07:46:47;;;;;;;0.22;0.22;;;10.80;99.90;;;;;;5028647;28;20028;-85
2023/12/25 07:49:12;;;;;;;0.52;0.22;;;10.90;99.90;;;;;;5047026;28;20489;-85
2023/12/25 07:51:38;;;;;;;1.80;0.38;;;10.90;99.90;;;;;;5031882;28;20040;-85
2023/12/25 07:54:03;;;;;;;1.30;0.20;;;10.90;99.90;;;;;;5026576;28;20040;-85
2023/12/25 07:56:29;;;;;;;0.30;0.30;;;10.80;99.90;;;;;;5029157;28;20478;-85
2023/12/25 07:58:55;;;;;;;0.22;0.20;;;10.90;99.90;;;;;;5033047;28;20066;-84
2023/12/25 08:01:22;;;;;;;0.63;0.38;;;10.80;99.90;;;;;;5046549;28;20489;-85
2023/12/25 08:03:49;;;;;;;1.20;0.55;;;10.90;99.90;;;;;;5030659;28;20036;-85
2023/12/25 08:06:15;;;;;;;0.98;0.20;;;10.90;99.90;;;;;;5026380;28;20078;-85
2023/12/25 08:08:40;;;;;;;1.25;0.30;;;10.90;99.90;;;;;;5029266;28;20078;-85
2023/12/25 08:11:06;;;;;;;0.30;0.30;;;10.80;99.90;;;;;;5033449;28;20036;-85
2023/12/25 08:13:32;;;;;;;0.85;0.40;;;10.80;99.90;;;;;;5030513;28;20069;-85
2023/12/25 08:15:57;;;;;;;1.50;0.40;;;10.90;99.90;;;;;;5029334;28;20081;-85
2023/12/25 08:18:23;;;;;;;1.33;0.32;;;10.80;99.90;;;;;;5027797;28;20589;-85
2023/12/25 08:20:49;;;;;;;1.55;0.30;;;10.90;99.90;;;;;;5043387;28;20043;-86
2023/12/25 08:23:14;;;;;;;0.70;0.25;;;11.00;99.90;;;;;;5033503;28;20039;-85
2023/12/25 08:25:41;;;;;;;0.47;0.20;;;10.90;99.90;;;;;;5030977;28;20040;-85
2023/12/25 08:28:06;;;;;;;0.82;0.43;;;10.90;99.90;;;;;;5031455;28;20481;-85
2023/12/25 08:30:32;;;;;;;1.95;0.60;;;10.90;99.90;;;;;;5028984;28;20032;-83
2023/12/25 08:32:57;;;;;;;0.40;0.25;;;10.90;99.90;;;;;;5030489;28;20058;-83
2023/12/25 08:35:23;;;;;;;0.82;0.40;;;10.90;99.90;;;;;;5023365;28;20609;-83
2023/12/25 08:37:49;;;;;;;0.22;0.13;;;10.90;99.90;;;;;;5054871;28;20493;-83
2023/12/25 08:40:15;;;;;;;1.88;0.43;;;10.90;99.90;;;;;;5028566;28;20039;-83
2023/12/25 08:42:41;;;;;;;3.72;0.40;;;10.90;99.90;;;;;;5043579;28;20032;-83
2023/12/25 08:45:07;;;;;;;0.52;0.43;;;10.90;99.90;;;;;;5027772;28;20035;-82
2023/12/25 08:47:33;;;;;;;1.08;0.75;;;10.90;99.90;;;;;;5044352;28;20048;-84
2023/12/25 08:49:59;;;;;;;3.03;1.60;;;11.00;99.90;;;;;;5034021;28;20035;-83
2023/12/25 08:52:27;;;;;;;4.32;0.85;;;10.90;99.90;;;;;;5018062;28;20037;-82
2023/12/25 08:54:52;;;;;;;2.10;0.93;;;10.90;99.90;;;;;;5043452;28;20032;-83
2023/12/25 08:57:34;;;;;;;2.60;1.85;;;10.90;99.90;;;;;;5004750;28;20044;-83
2023/12/25 09:00:08;;;;;;;4.25;2.03;;;10.90;99.90;;;;;;5005256;28;20024;-83
2023/12/25 09:02:38;;;;;;;3.67;2.40;;;10.80;99.90;;;;;;5037596;28;20028;-83
2023/12/25 09:05:04;;;;;;;6.13;3.22;;;10.80;99.90;;;;;;5008194;28;20638;-82
2023/12/25 09:07:30;;;;;;;4.68;3.33;;;10.80;99.90;;;;;;5030941;28;20060;-83
2023/12/25 09:09:55;;;;;;;3.67;2.70;;;10.80;99.90;;;;;;5034046;28;20405;-83
2023/12/25 09:12:21;;;;;;;5.90;3.95;;;10.70;99.90;;;;;;5033940;28;20035;-87
2023/12/25 09:14:47;;;;;;;7.22;3.53;;;10.70;99.90;;;;;;5028460;28;20394;-86
2023/12/25 09:17:16;;;;;;;4.35;3.15;;;10.70;99.90;;;;;;5023438;28;20032;-87
2023/12/25 09:19:42;;;;;;;4.97;2.90;;;10.70;99.90;;;;;;5031833;28;20130;-87
2023/12/25 09:22:08;;;;;;;7.30;3.58;;;10.70;99.90;;;;;;5026937;28;20095;-86
2023/12/25 09:24:33;;;;;;;8.00;4.00;;;10.60;99.90;;;;;;5026653;28;20043;-87
2023/12/25 09:26:59;;;;;;;5.43;3.13;;;10.60;99.90;;;;;;5027835;28;20378;-87
2023/12/25 09:29:28;;;;;;;4.55;2.53;;;10.60;99.90;;;;;;5032582;28;20636;-87
2023/12/25 09:32:52;;;;;;;3.95;1.98;;;10.60;99.90;;;;;;5019537;28;20048;-85
2023/12/25 09:35:18;;;;;;;5.10;2.35;;;10.50;99.90;;;;;;5038771;28;20043;-87
2023/12/25 09:37:51;;;;;;;3.30;1.88;;;10.50;99.90;;;;;;5027224;28;20040;-86
2023/12/25 09:40:16;;;;;;;4.25;2.17;;;10.60;99.90;;;;;;5057269;28;20455;-84
2023/12/25 09:43:09;;;;;;;7.95;2.63;;;10.50;99.90;;;;;;5020155;28;20033;-87
2023/12/25 09:45:46;;;;;;;4.38;2.63;;;10.50;99.90;;;;;;5045703;28;20490;-87
2023/12/25 09:48:11;;;;;;;4.85;3.22;;;10.50;99.90;;;;;;5030882;28;20063;-87
2023/12/25 09:50:37;;;;;;;3.53;2.10;;;10.40;99.90;;;;;;5033651;28;20047;-86
2023/12/25 09:53:03;;;;;;;6.28;3.47;;;10.50;99.90;;;;;;5042888;28;20037;-87
2023/12/25 09:55:29;;;;;;;5.38;2.63;;;10.50;99.90;;;;;;5031356;28;20032;-87
2023/12/25 09:57:54;;;;;;;9.52;4.07;;;10.50;99.90;;;;;;5026981;28;20051;-86
2023/12/25 10:00:20;;;;;;;6.15;3.35;;;10.50;99.90;;;;;;5027715;28;20032;-87
2023/12/25 10:02:52;;;;;;;8.70;5.13;;;10.60;99.90;;;;;;5031121;28;20075;-87
2023/12/25 10:05:18;;;;;;;6.97;3.90;;;10.40;99.90;;;;;;5031953;28;20028;-88
2023/12/25 10:07:44;;;;;;;5.13;3.65;;;10.50;99.90;;;;;;5026842;28;20033;-89
2023/12/25 10:10:10;;;;;;;4.78;3.88;;;10.50;99.90;;;;;;5032420;28;20082;-87
2023/12/25 10:12:36;;;;;;;4.70;3.78;;;10.50;99.90;;;;;;5037911;28;20032;-88
2023/12/25 10:15:05;;;;;;;5.00;3.80;;;10.60;99.90;;;;;;5032656;28;20478;-87
2023/12/25 10:17:30;;;;;;;4.10;3.30;;;10.50;99.90;;;;;;5030726;28;20103;-87
2023/12/25 10:19:58;;;;;;;6.90;2.55;;;10.50;99.90;;;;;;5030916;28;20120;-87
2023/12/25 10:22:31;;;;;;;6.03;2.45;;;10.50;99.90;;;;;;5033413;28;20035;-88
2023/12/25 10:25:10;;;;;;;4.00;2.60;;;10.50;99.90;;;;;;5025365;28;20036;-87
2023/12/25 10:27:40;;;;;;;5.70;3.08;;;10.50;99.90;;;;;;5047190;28;20029;-87
2023/12/25 10:30:27;;;;;;;3.55;2.78;;;10.50;99.90;;;;;;5059751;28;20389;-88
2023/12/25 10:33:13;;;;;;;5.40;3.30;;;10.40;99.90;;;;;;5044156;28;20021;-88
2023/12/25 10:35:38;;;;;;;6.00;3.33;;;10.50;99.90;;;;;;5032501;28;20467;-88
2023/12/25 10:38:05;;;;;;;5.97;3.95;;;10.50;99.90;;;;;;5029819;28;20614;-88
2023/12/25 10:40:46;;;;;;;6.15;3.97;;;10.40;99.90;;;;;;5046777;28;20037;-88
2023/12/25 10:43:12;;;;;;;8.52;3.75;;;10.40;99.90;;;;;;5032585;28;20485;-88
2023/12/25 10:45:38;;;;;;;6.93;4.18;;;10.50;99.90;;;;;;5033841;28;20043;-87
2023/12/25 10:48:05;;;;;;;8.73;3.97;;;10.40;99.90;;;;;;5026880;28;20032;-86
2023/12/25 10:50:36;;;;;;;6.57;4.55;;;10.40;99.90;;;;;;5043568;28;20574;-87
2023/12/25 10:53:06;;;;;;;9.77;4.90;;;10.40;99.90;;;;;;5045785;28;20029;-84
2023/12/25 10:55:36;;;;;;;9.73;5.07;;;10.40;99.90;;;;;;5031211;28;20513;-84
2023/12/25 10:58:03;;;;;;;6.72;4.78;;;10.40;99.90;;;;;;5045429;28;20497;-84
2023/12/25 11:00:30;;;;;;;6.75;4.00;;;10.40;99.90;;;;;;5029160;28;20035;-85
2023/12/25 11:02:57;;;;;;;8.95;5.25;;;10.40;99.90;;;;;;5031240;28;20035;-84
2023/12/25 11:05:25;;;;;;;5.93;4.03;;;10.40;99.90;;;;;;5030244;28;20032;-84
2023/12/25 11:07:52;;;;;;;6.05;4.40;;;10.40;99.90;;;;;;5044346;28;23299;-84
2023/12/25 11:10:19;;;;;;;8.35;5.60;;;10.40;99.90;;;;;;5042166;28;20101;-82
2023/12/25 11:12:45;;;;;;;7.53;5.38;;;10.40;99.90;;;;;;5028878;28;20441;-85
2023/12/25 11:15:11;;;;;;;7.30;4.40;;;10.40;99.90;;;;;;5034103;28;20060;-85
2023/12/25 11:17:37;;;;;;;7.82;5.07;;;10.50;99.90;;;;;;5033353;28;20063;-85
2023/12/25 11:20:05;;;;;;;5.28;3.40;;;10.50;99.90;;;;;;5036861;28;20078;-85
2023/12/25 11:22:36;;;;;;;6.80;4.00;;;10.40;99.90;;;;;;5045249;28;20032;-87
2023/12/25 11:25:02;;;;;;;9.50;4.45;;;10.40;99.90;;;;;;5027888;28;20028;-87
2023/12/25 11:27:29;;;;;;;5.20;3.83;;;10.50;99.90;;;;;;5027851;28;20028;-87
2023/12/25 11:30:07;;;;;;;3.92;2.83;;;10.50;99.90;;;;;;5031165;28;20070;-86
2023/12/25 11:32:35;;;;;;;2.67;1.95;;;10.50;99.90;;;;;;5035079;28;20116;-85
2023/12/25 11:35:00;;;;;;;1.88;1.13;;;10.50;99.90;;;;;;5029678;28;20390;-85
2023/12/25 11:37:28;;;;;;;4.65;1.98;;;10.60;99.90;;;;;;5028156;28;20039;-84
2023/12/25 11:40:05;;;;;;;2.03;1.20;;;10.60;99.90;;;;;;5048648;28;20051;-85
2023/12/25 11:42:33;;;;;;;1.17;0.80;;;10.60;99.90;;;;;;5066241;28;20032;-85
2023/12/25 11:45:06;;;;;;;0.80;0.77;;;10.70;99.90;;;;;;5040498;28;20028;-85
2023/12/25 11:47:45;;;;;;;0.95;0.70;;;10.70;99.90;;;;;;5028005;28;20029;-85
2023/12/25 11:50:12;;;;;;;0.20;0.20;;;10.80;99.90;;;;;;5028713;28;20036;-85
2023/12/25 11:52:44;;;;;;;2.15;0.50;;;10.80;99.90;;;;;;5025904;28;20024;-86
2023/12/25 11:55:12;;;;;;;1.00;0.65;;;10.80;99.90;;;;;;5077237;28;20425;-86
2023/12/25 11:57:45;;;;;;;1.58;0.50;;;10.90;99.90;;;;;;5027671;28;20029;-85
2023/12/25 12:00:21;;;;;;;2.00;0.50;;;10.90;99.90;;;;;;5030366;28;20042;-85
2023/12/25 12:02:46;;;;;;;0.35;0.30;;;10.90;99.90;;;;;;5029728;28;20134;-85
2023/12/25 12:05:12;;;;;;;1.95;0.40;;;11.00;99.90;;;;;;5031766;28;20497;-85
2023/12/25 12:07:44;;;;;;;0.28;0.28;;;11.00;99.90;;;;;;5029805;28;20029;-85
2023/12/25 12:10:11;;;;;;;0.50;0.40;;;11.00;99.90;;;;;;5017701;28;20036;-86
2023/12/25 12:12:37;;;;;;;0.60;0.50;;;10.90;99.90;;;;;;5022177;28;20089;-86
2023/12/25 12:15:03;;;;;;;0.93;0.50;;;11.00;99.90;;;;;;5030775;28;20021;-86
2023/12/25 12:17:29;;;;;;;2.47;1.13;;;11.00;99.90;;;;;;5045601;28;20028;-87
2023/12/25 12:19:55;;;;;;;8.38;2.33;;;10.90;99.90;;;;;;5033225;28;20050;-86
2023/12/25 12:22:21;;;;;;;3.40;2.20;;;11.00;99.90;;;;;;5018792;28;20110;-86
2023/12/25 12:24:46;;;;;;;3.42;2.22;;;10.90;99.90;;;;;;5022196;28;20062;-84
2023/12/25 12:27:17;;;;;;;3.92;2.83;;;10.90;99.90;;;;;;5030920;28;20029;-85
2023/12/25 12:29:43;;;;;;;4.47;3.47;;;11.00;99.90;;;;;;5030180;28;20032;-85
2023/12/25 12:32:08;;;;;;;5.03;3.78;;;11.00;99.90;;;;;;5027443;28;20381;-85
2023/12/25 12:34:34;;;;;;;6.80;4.57;;;11.00;99.90;;;;;;5029440;28;20111;-84
2023/12/25 12:37:07;;;;;;;4.20;2.53;;;11.00;99.90;;;;;;5031528;28;20031;-84
2023/12/25 12:39:32;;;;;;;5.82;4.22;;;10.90;99.90;;;;;;5032379;28;20082;-84
2023/12/25 12:41:59;;;;;;;4.78;3.33;;;11.00;99.90;;;;;;5032061;28;20485;-85
2023/12/25 12:44:25;;;;;;;7.45;5.22;;;10.90;99.90;;;;;;5048009;28;20036;-85
2023/12/25 12:46:52;;;;;;;6.80;5.43;;;10.90;99.90;;;;;;5030539;28;20056;-84